createdAt,value
2019-06-26T00:00:07.695Z,7.33
2019-06-26T00:03:22.909Z,7.47
2019-06-26T00:06:38.256Z,6.93
2019-06-26T00:09:53.346Z,7.70
2019-06-26T00:13:08.532Z,7.63
2019-06-26T00:16:23.105Z,7.50
2019-06-26T00:19:40.060Z,7.50
2019-06-26T00:22:55.018Z,7.43
2019-06-26T00:26:11.101Z,7.53
2019-06-26T00:29:25.770Z,7.80
2019-06-26T00:32:40.692Z,7.57
2019-06-26T00:35:56.347Z,7.43
2019-06-26T00:39:11.708Z,7.90
2019-06-26T00:42:26.720Z,7.27
2019-06-26T00:45:42.538Z,7.50
2019-06-26T00:49:00.265Z,7.53
2019-06-26T00:52:15.243Z,7.77
2019-06-26T00:55:30.652Z,7.60
2019-06-26T00:58:45.923Z,8.50
2019-06-26T01:02:00.790Z,7.13
2019-06-26T01:05:16.745Z,8.30
2019-06-26T01:08:31.972Z,8.00
2019-06-26T01:11:46.842Z,7.37
2019-06-26T01:15:01.587Z,7.50
2019-06-26T01:18:17.205Z,7.83
2019-06-26T01:21:32.199Z,7.67
2019-06-26T01:25:05.381Z,7.60
2019-06-26T01:28:20.571Z,7.43
2019-06-26T01:31:35.684Z,7.37
2019-06-26T01:34:50.730Z,8.03
2019-06-26T01:38:05.828Z,8.00
2019-06-26T01:41:20.784Z,7.73
2019-06-26T01:44:35.604Z,7.97
2019-06-26T01:47:50.839Z,7.83
2019-06-26T01:51:13.522Z,7.20
2019-06-26T01:54:29.770Z,7.33
2019-06-26T01:57:45.294Z,7.40
2019-06-26T02:01:00.149Z,7.10
2019-06-26T02:04:15.780Z,7.13
2019-06-26T02:07:30.790Z,7.27
2019-06-26T02:10:46.453Z,7.03
2019-06-26T02:14:01.469Z,7.63
2019-06-26T02:17:17.659Z,7.10
2019-06-26T02:20:33.086Z,6.70
2019-06-26T02:23:49.134Z,7.73
2019-06-26T02:27:03.962Z,8.10
2019-06-26T02:30:19.192Z,8.00
2019-06-26T02:33:35.204Z,7.53
2019-06-26T02:36:51.307Z,7.77
2019-06-26T02:40:07.085Z,7.13
2019-06-26T02:43:22.254Z,7.67
2019-06-26T02:46:37.695Z,7.83
2019-06-26T02:49:53.473Z,8.27
2019-06-26T02:53:08.409Z,7.70
2019-06-26T02:56:24.557Z,7.73
2019-06-26T02:59:40.839Z,7.13
2019-06-26T03:02:56.934Z,7.43
2019-06-26T03:06:11.816Z,7.57
2019-06-26T03:09:27.106Z,7.07
2019-06-26T03:12:42.050Z,7.40
2019-06-26T03:15:57.575Z,6.47
2019-06-26T03:19:12.904Z,6.90
2019-06-26T03:22:29.159Z,7.53
2019-06-26T03:25:44.487Z,7.17
2019-06-26T03:28:59.561Z,7.00
2019-06-26T03:32:14.631Z,8.47
2019-06-26T03:35:29.735Z,7.43
2019-06-26T03:38:45.913Z,6.40
2019-06-26T03:42:00.604Z,6.23
2019-06-26T03:45:25.717Z,7.17
2019-06-26T03:48:33.741Z,6.77
2019-06-26T03:51:51.200Z,6.67
2019-06-26T03:55:07.054Z,8.13
2019-06-26T03:58:23.122Z,7.20
2019-06-26T04:01:39.119Z,6.30
2019-06-26T04:04:55.002Z,7.30
2019-06-26T04:08:09.949Z,6.87
2019-06-26T04:11:25.620Z,6.90
2019-06-26T04:14:43.105Z,7.40
2019-06-26T04:17:58.588Z,6.50
2019-06-26T04:21:13.312Z,6.97
2019-06-26T04:24:28.254Z,6.40
2019-06-26T04:27:43.497Z,7.93
2019-06-26T04:30:58.651Z,6.67
2019-06-26T04:34:13.803Z,7.20
2019-06-26T04:37:28.625Z,7.73
2019-06-26T04:40:43.616Z,6.60
2019-06-26T04:43:58.870Z,6.77
2019-06-26T04:47:14.511Z,6.83
2019-06-26T04:50:29.233Z,5.83
2019-06-26T04:53:44.219Z,6.87
2019-06-26T04:56:59.553Z,6.43
2019-06-26T05:00:15.397Z,6.70
2019-06-26T05:03:31.344Z,7.00
2019-06-26T05:06:46.531Z,7.10
2019-06-26T05:10:01.386Z,7.23
2019-06-26T05:16:49.062Z,6.70
2019-06-26T05:20:05.522Z,5.93
2019-06-26T05:23:21.642Z,6.50
2019-06-26T05:26:37.709Z,6.53
2019-06-26T05:29:54.588Z,6.57
2019-06-26T05:33:10.557Z,6.53
2019-06-26T05:36:26.956Z,6.80
2019-06-26T05:39:42.438Z,6.50
2019-06-26T05:42:57.941Z,6.60
2019-06-26T05:46:12.663Z,7.27
2019-06-26T05:49:30.615Z,6.97
2019-06-26T05:52:45.464Z,7.63
2019-06-26T05:56:00.395Z,7.43
2019-06-26T05:59:15.323Z,6.97
2019-06-26T06:02:30.435Z,6.73
2019-06-26T06:05:45.922Z,7.50
2019-06-26T06:09:02.355Z,7.50
2019-06-26T06:12:17.985Z,7.80
2019-06-26T06:15:33.447Z,7.00
2019-06-26T06:18:48.772Z,7.17
2019-06-26T06:22:03.633Z,7.20
2019-06-26T06:25:18.983Z,6.87
2019-06-26T06:28:35.766Z,6.93
2019-06-26T06:31:51.337Z,7.30
2019-06-26T06:35:06.691Z,8.73
2019-06-26T06:38:22.599Z,7.37
2019-06-26T06:41:37.808Z,7.43
2019-06-26T06:44:53.188Z,7.83
2019-06-26T06:48:08.143Z,7.53
2019-06-26T06:51:23.168Z,7.17
2019-06-26T06:54:38.083Z,6.90
2019-06-26T06:57:53.049Z,6.73
2019-06-26T07:01:08.350Z,6.23
2019-06-26T07:04:23.772Z,5.67
2019-06-26T07:07:41.274Z,6.03
2019-06-26T07:10:57.106Z,6.47
2019-06-26T07:14:11.619Z,6.10
2019-06-26T07:17:26.460Z,6.13
2019-06-26T07:20:44.461Z,6.47
2019-06-26T07:23:58.230Z,6.23
2019-06-26T07:27:13.290Z,6.20
2019-06-26T07:30:28.773Z,6.17
2019-06-26T07:33:43.898Z,6.20
2019-06-26T07:36:59.194Z,6.10
2019-06-26T07:40:14.491Z,6.30
2019-06-26T07:43:30.442Z,6.33
2019-06-26T07:46:46.871Z,7.10
2019-06-26T07:50:02.134Z,6.17
2019-06-26T07:53:16.844Z,5.90
2019-06-26T07:56:31.912Z,6.63
2019-06-26T07:59:47.909Z,6.93
2019-06-26T08:03:04.531Z,6.27
2019-06-26T08:06:19.803Z,6.23
2019-06-26T08:09:34.849Z,5.90
2019-06-26T08:12:49.723Z,6.40
2019-06-26T08:16:06.280Z,6.23
2019-06-26T08:19:22.430Z,6.00
2019-06-26T08:22:37.314Z,6.30
2019-06-26T08:25:52.229Z,6.23
2019-06-26T08:29:07.612Z,6.23
2019-06-26T08:32:25.846Z,6.27
2019-06-26T08:35:39.651Z,6.40
2019-06-26T08:38:55.978Z,5.90
2019-06-26T08:42:12.318Z,6.53
2019-06-26T08:45:27.041Z,6.77
2019-06-26T08:48:42.174Z,6.50
2019-06-26T08:51:58.142Z,6.57
2019-06-26T08:55:14.051Z,6.10
2019-06-26T08:58:29.908Z,5.80
2019-06-26T09:01:45.206Z,6.30
2019-06-26T09:05:01.479Z,5.77
2019-06-26T09:08:17.139Z,6.23
2019-06-26T09:20:02.660Z,6.60
2019-06-26T09:26:44.342Z,6.73
2019-06-26T09:29:59.989Z,6.53
2019-06-26T09:33:15.862Z,6.50
2019-06-26T09:36:31.025Z,6.50
2019-06-26T09:39:47.070Z,6.50
2019-06-26T09:43:03.273Z,6.40
2019-06-26T09:46:18.757Z,6.70
2019-06-26T09:49:35.013Z,6.03
2019-06-26T09:52:50.693Z,6.87
2019-06-26T09:56:06.738Z,6.40
2019-06-26T09:59:22.611Z,6.10
2019-06-26T10:02:37.827Z,6.67
2019-06-26T10:05:55.568Z,6.47
2019-06-26T10:09:10.662Z,6.30
2019-06-26T10:12:26.178Z,6.03
2019-06-26T10:16:00.776Z,6.90
2019-06-26T10:19:16.437Z,6.43
2019-06-26T10:22:32.289Z,5.93
2019-06-26T10:25:47.711Z,6.07
2019-06-26T10:29:02.788Z,6.37
2019-06-26T10:32:19.130Z,6.13
2019-06-26T10:35:35.608Z,6.00
2019-06-26T10:38:50.627Z,5.33
2019-06-26T10:42:07.441Z,6.80
2019-06-26T10:45:23.132Z,6.93
2019-06-26T10:48:37.918Z,6.13
2019-06-26T10:51:54.163Z,6.13
2019-06-26T10:55:10.034Z,5.87
2019-06-26T10:58:27.435Z,6.47
2019-06-26T11:01:42.736Z,5.87
2019-06-26T11:05:05.456Z,5.40
2019-06-26T11:08:20.665Z,6.00
2019-06-26T11:11:35.752Z,6.20
2019-06-26T11:14:51.022Z,6.30
2019-06-26T11:18:05.676Z,6.00
2019-06-26T11:21:21.479Z,6.03
2019-06-26T11:24:37.412Z,6.17
2019-06-26T11:27:53.618Z,5.83
2019-06-26T11:31:09.690Z,6.17
2019-06-26T11:34:25.650Z,5.77
2019-06-26T11:37:40.487Z,5.40
2019-06-26T11:40:55.724Z,5.53
2019-06-26T11:44:11.496Z,5.83
2019-06-26T11:47:27.796Z,5.63
2019-06-26T11:50:43.137Z,5.70
2019-06-26T11:53:59.126Z,5.93
2019-06-26T11:57:15.542Z,5.57
2019-06-26T12:00:30.958Z,6.03
2019-06-26T12:03:46.452Z,6.00
2019-06-26T12:07:03.051Z,6.03
2019-06-26T12:10:18.860Z,5.30
2019-06-26T12:16:49.870Z,6.10
2019-06-26T12:20:17.807Z,6.00
2019-06-26T12:23:23.411Z,6.17
2019-06-26T12:26:39.233Z,5.33
2019-06-26T12:29:54.693Z,5.40
2019-06-26T12:33:10.319Z,6.03
2019-06-26T12:36:25.549Z,5.60
2019-06-26T12:39:40.965Z,5.80
2019-06-26T12:42:56.042Z,5.63
2019-06-26T12:46:11.181Z,6.10
2019-06-26T12:49:26.380Z,5.53
2019-06-26T12:52:41.474Z,6.50
2019-06-26T12:55:57.340Z,6.27
2019-06-26T12:59:13.808Z,5.43
2019-06-26T13:02:28.880Z,5.90
2019-06-26T13:05:45.304Z,5.93
2019-06-26T13:09:02.793Z,5.70
2019-06-26T13:12:18.547Z,5.60
2019-06-26T13:15:45.716Z,6.00
2019-06-26T13:19:06.520Z,6.00
2019-06-26T13:22:24.111Z,6.03
2019-06-26T13:25:40.088Z,5.83
2019-06-26T13:28:54.948Z,6.03
2019-06-26T13:32:11.276Z,6.07
2019-06-26T13:35:26.593Z,6.13
2019-06-26T13:38:41.843Z,5.87
2019-06-26T13:41:57.542Z,5.80
2019-06-26T13:45:13.239Z,6.13
2019-06-26T13:48:29.505Z,5.77
2019-06-26T13:51:45.553Z,6.13
2019-06-26T13:58:37.378Z,6.40
2019-06-26T14:01:53.470Z,6.40
2019-06-26T14:05:09.219Z,6.23
2019-06-26T14:08:24.250Z,5.70
2019-06-26T14:11:39.615Z,6.17
2019-06-26T14:14:57.693Z,6.27
2019-06-26T14:18:12.778Z,6.50
2019-06-26T14:21:28.132Z,6.10
2019-06-26T14:24:42.999Z,6.47
2019-06-26T14:28:09.941Z,6.00
2019-06-26T14:31:23.344Z,6.37
2019-06-26T14:34:39.248Z,6.40
2019-06-26T14:37:54.133Z,6.47
2019-06-26T14:41:09.962Z,6.10
2019-06-26T14:44:25.023Z,6.20
2019-06-26T14:47:39.933Z,6.47
2019-06-26T14:50:55.586Z,6.47
2019-06-26T14:54:10.602Z,5.87
2019-06-26T14:57:26.145Z,6.23
2019-06-26T15:00:43.848Z,6.03
2019-06-26T15:03:59.771Z,6.67
2019-06-26T15:07:15.256Z,6.33
2019-06-26T15:10:30.639Z,6.40
2019-06-26T15:14:06.887Z,6.50
2019-06-26T15:20:57.728Z,6.23
2019-06-26T15:24:13.039Z,6.10
2019-06-26T15:27:30.886Z,6.13
2019-06-26T15:30:47.020Z,6.33
2019-06-26T15:34:02.265Z,5.80
2019-06-26T15:37:26.214Z,6.50
2019-06-26T15:40:41.104Z,6.17
2019-06-26T15:44:03.774Z,6.23
2019-06-26T15:47:20.431Z,6.27
2019-06-26T15:50:36.159Z,6.60
2019-06-26T15:53:51.142Z,5.83
2019-06-26T15:57:06.907Z,5.77
2019-06-26T16:00:22.746Z,6.00
2019-06-26T16:03:41.245Z,6.20
2019-06-26T16:06:59.616Z,6.00
2019-06-26T16:10:14.858Z,6.17
2019-06-26T16:13:36.734Z,6.60
2019-06-26T16:16:53.326Z,6.07
2019-06-26T16:20:09.854Z,6.50
2019-06-26T16:23:24.894Z,5.83
2019-06-26T16:26:40.445Z,6.40
2019-06-26T16:29:55.683Z,6.90
2019-06-26T16:33:12.028Z,23.03
2019-06-26T16:36:30.710Z,6.70
2019-06-26T16:39:45.562Z,7.40
2019-06-26T16:43:01.023Z,7.10
2019-06-26T16:46:16.569Z,7.30
2019-06-26T16:49:31.820Z,7.23
2019-06-26T16:52:49.604Z,7.10
2019-06-26T16:56:04.826Z,6.80
2019-06-26T16:59:19.691Z,6.50
2019-06-26T17:02:35.189Z,7.30
2019-06-26T17:05:50.788Z,6.83
2019-06-26T17:09:06.229Z,7.17
2019-06-26T17:12:21.821Z,6.83
2019-06-26T17:15:37.836Z,6.50
2019-06-26T17:18:52.792Z,7.20
2019-06-26T17:22:07.861Z,6.50
2019-06-26T17:25:22.609Z,6.93
2019-06-26T17:28:37.452Z,6.97
2019-06-26T17:31:52.369Z,7.43
2019-06-26T17:35:07.650Z,7.20
2019-06-26T17:38:23.404Z,7.30
2019-06-26T17:41:40.014Z,6.37
2019-06-26T17:44:56.031Z,6.87
2019-06-26T17:48:12.700Z,7.23
2019-06-26T17:51:27.975Z,7.53
2019-06-26T17:54:43.955Z,7.17
2019-06-26T17:57:58.955Z,7.00
2019-06-26T18:01:14.570Z,8.07
2019-06-26T18:04:30.728Z,7.50
2019-06-26T18:07:48.665Z,7.80
2019-06-26T18:11:05.241Z,7.00
2019-06-26T18:14:20.192Z,6.87
2019-06-26T18:17:35.223Z,7.37
2019-06-26T18:20:50.349Z,6.73
2019-06-26T18:24:06.037Z,7.00
2019-06-26T18:27:20.890Z,7.70
2019-06-26T18:30:37.055Z,7.53
2019-06-26T18:33:53.655Z,7.60
2019-06-26T18:37:09.073Z,7.30
2019-06-26T18:40:23.789Z,7.60
2019-06-26T18:43:39.325Z,7.40
2019-06-26T18:46:54.065Z,7.20
2019-06-26T18:50:10.719Z,8.50
2019-06-26T18:53:26.877Z,8.10
2019-06-26T18:56:42.198Z,7.27
2019-06-26T18:59:57.265Z,8.00
2019-06-26T19:03:12.544Z,7.70
2019-06-26T19:06:28.009Z,8.30
2019-06-26T19:09:42.672Z,8.07
2019-06-26T19:12:58.310Z,9.33
2019-06-26T19:16:14.471Z,8.63
2019-06-26T19:19:29.719Z,8.97
2019-06-26T19:22:47.594Z,8.47
2019-06-26T19:26:02.974Z,8.90
2019-06-26T19:29:18.219Z,8.77
2019-06-26T19:32:33.027Z,9.57
2019-06-26T19:35:49.813Z,9.20
2019-06-26T19:39:05.329Z,9.93
2019-06-26T19:42:20.484Z,9.73
2019-06-26T19:45:36.497Z,9.90
2019-06-26T19:48:51.510Z,10.40
2019-06-26T19:52:06.877Z,10.53
2019-06-26T19:55:22.533Z,11.30
2019-06-26T19:58:37.446Z,10.00
2019-06-26T20:01:52.507Z,10.90
2019-06-26T20:05:08.588Z,10.53
2019-06-26T20:08:24.000Z,11.03
2019-06-26T20:11:38.881Z,11.10
2019-06-26T20:14:53.526Z,11.30
2019-06-26T20:18:09.882Z,11.50
2019-06-26T20:21:24.665Z,12.90
2019-06-26T20:24:44.397Z,11.63
2019-06-26T20:27:57.459Z,11.70
2019-06-26T20:31:12.336Z,11.60
2019-06-26T20:34:28.331Z,12.73
2019-06-26T20:37:45.103Z,13.37
2019-06-26T20:41:01.674Z,13.87
2019-06-26T20:44:16.704Z,13.00
2019-06-26T20:47:31.480Z,13.83
2019-06-26T20:50:47.674Z,14.10
2019-06-26T20:54:02.510Z,13.47
2019-06-26T20:57:19.684Z,14.67
2019-06-26T21:00:34.413Z,14.80
2019-06-26T21:03:50.511Z,14.57
2019-06-26T21:07:05.978Z,14.07
2019-06-26T21:10:22.036Z,14.50
2019-06-26T21:16:56.328Z,15.93
2019-06-26T21:20:11.469Z,15.60
2019-06-26T21:23:27.094Z,16.07
2019-06-26T21:26:42.039Z,15.10
2019-06-26T21:29:57.131Z,16.00
2019-06-26T21:33:12.822Z,16.43
2019-06-26T21:36:28.855Z,15.60
2019-06-26T21:39:44.079Z,15.77
2019-06-26T21:43:01.522Z,16.47
2019-06-26T21:46:17.489Z,17.50
2019-06-26T21:49:33.290Z,16.10
2019-06-26T21:52:48.906Z,16.23
2019-06-26T21:56:04.185Z,16.47
2019-06-26T21:59:19.103Z,15.63
2019-06-26T22:02:34.778Z,16.20
2019-06-26T22:05:50.061Z,16.63
2019-06-26T22:09:06.781Z,15.37
2019-06-26T22:12:22.184Z,15.97
2019-06-26T22:15:37.916Z,16.50
2019-06-26T22:18:53.601Z,16.23
2019-06-26T22:22:08.635Z,16.70
2019-06-26T22:25:23.619Z,16.60
2019-06-26T22:28:38.450Z,17.00
2019-06-26T22:31:53.489Z,16.50
2019-06-26T22:35:09.221Z,16.67
2019-06-26T22:38:24.368Z,16.50
2019-06-26T22:41:39.426Z,17.37
2019-06-26T22:44:56.365Z,16.60
2019-06-26T22:48:11.488Z,15.97
2019-06-26T22:51:27.532Z,17.17
2019-06-26T22:54:42.924Z,17.90
2019-06-26T22:57:57.938Z,17.53
2019-06-26T23:01:13.146Z,17.67
2019-06-26T23:04:28.791Z,17.93
2019-06-26T23:07:44.845Z,18.60
2019-06-26T23:11:00.021Z,17.30
2019-06-26T23:14:15.489Z,17.47
2019-06-26T23:17:32.188Z,17.03
2019-06-26T23:20:46.894Z,17.53
2019-06-26T23:24:01.995Z,17.87
2019-06-26T23:27:17.387Z,18.53
2019-06-26T23:30:32.018Z,18.13
2019-06-26T23:33:48.542Z,16.70
2019-06-26T23:37:06.700Z,18.07
2019-06-26T23:40:21.674Z,17.63
2019-06-26T23:43:36.731Z,18.13
2019-06-26T23:46:51.526Z,19.10
2019-06-26T23:50:07.191Z,19.60
2019-06-26T23:53:22.470Z,18.97
2019-06-26T23:56:40.610Z,18.90
2019-06-26T23:59:55.433Z,18.03
